sensor_id;sensor_type;location;lat;lon;timestamp;temperature;humidity
8067;DHT22;4076;48.076;9.118;2022-09-09T00:01:54;10.70;99.90
8067;DHT22;4076;48.076;9.118;2022-09-09T00:04:09;10.70;99.90
8067;DHT22;4076;48.076;9.118;2022-09-09T00:06:59;10.70;99.90
8067;DHT22;4076;48.076;9.118;2022-09-09T00:09:30;10.60;99.90
8067;DHT22;4076;48.076;9.118;2022-09-09T00:12:15;10.70;99.90
8067;DHT22;4076;48.076;9.118;2022-09-09T00:17:14;10.60;99.90
8067;DHT22;4076;48.076;9.118;2022-09-09T00:19:49;10.60;99.90
8067;DHT22;4076;48.076;9.118;2022-09-09T00:22:19;10.60;99.90
8067;DHT22;4076;48.076;9.118;2022-09-09T00:27:33;10.60;99.90
8067;DHT22;4076;48.076;9.118;2022-09-09T00:32:46;10.60;99.90
8067;DHT22;4076;48.076;9.118;2022-09-09T00:35:16;10.60;99.90
8067;DHT22;4076;48.076;9.118;2022-09-09T00:37:45;10.60;99.90
8067;DHT22;4076;48.076;9.118;2022-09-09T00:40:24;10.70;99.90
8067;DHT22;4076;48.076;9.118;2022-09-09T00:55:19;10.50;99.90
8067;DHT22;4076;48.076;9.118;2022-09-09T00:57:50;10.40;99.90
8067;DHT22;4076;48.076;9.118;2022-09-09T01:00:59;10.30;99.90
8067;DHT22;4076;48.076;9.118;2022-09-09T01:06:25;10.20;99.90
8067;DHT22;4076;48.076;9.118;2022-09-09T01:11:50;10.20;99.90
8067;DHT22;4076;48.076;9.118;2022-09-09T01:17:09;10.20;99.90
8067;DHT22;4076;48.076;9.118;2022-09-09T01:22:30;10.10;99.90
8067;DHT22;4076;48.076;9.118;2022-09-09T01:28:25;10.10;99.90
8067;DHT22;4076;48.076;9.118;2022-09-09T01:30:53;10.10;99.90
8067;DHT22;4076;48.076;9.118;2022-09-09T01:33:19;10.10;99.90
8067;DHT22;4076;48.076;9.118;2022-09-09T01:35:57;10.10;99.90
8067;DHT22;4076;48.076;9.118;2022-09-09T01:38:26;10.20;99.90
8067;DHT22;4076;48.076;9.118;2022-09-09T01:40:53;10.10;99.90
8067;DHT22;4076;48.076;9.118;2022-09-09T01:43:22;10.10;99.90
8067;DHT22;4076;48.076;9.118;2022-09-09T01:45:52;10.10;99.90
8067;DHT22;4076;48.076;9.118;2022-09-09T01:48:19;10.10;99.90
8067;DHT22;4076;48.076;9.118;2022-09-09T01:50:45;10.10;99.90
8067;DHT22;4076;48.076;9.118;2022-09-09T01:53:11;10.20;99.90
8067;DHT22;4076;48.076;9.118;2022-09-09T01:55:42;10.20;99.90
8067;DHT22;4076;48.076;9.118;2022-09-09T02:01:18;10.40;99.90
8067;DHT22;4076;48.076;9.118;2022-09-09T02:03:52;10.70;99.90
8067;DHT22;4076;48.076;9.118;2022-09-09T02:06:35;10.70;99.90
8067;DHT22;4076;48.076;9.118;2022-09-09T02:09:03;10.80;99.90
8067;DHT22;4076;48.076;9.118;2022-09-09T02:11:30;10.90;99.90
8067;DHT22;4076;48.076;9.118;2022-09-09T02:14:18;11.10;99.90
8067;DHT22;4076;48.076;9.118;2022-09-09T02:16:54;11.10;99.90
8067;DHT22;4076;48.076;9.118;2022-09-09T02:21:54;11.10;99.90
8067;DHT22;4076;48.076;9.118;2022-09-09T02:24:21;11.20;99.90
8067;DHT22;4076;48.076;9.118;2022-09-09T02:26:50;11.20;99.90
8067;DHT22;4076;48.076;9.118;2022-09-09T02:29:31;11.20;99.90
8067;DHT22;4076;48.076;9.118;2022-09-09T02:32:01;11.20;99.90
8067;DHT22;4076;48.076;9.118;2022-09-09T02:34:29;11.30;99.90
8067;DHT22;4076;48.076;9.118;2022-09-09T02:36:57;11.30;99.90
8067;DHT22;4076;48.076;9.118;2022-09-09T02:39:25;11.20;99.90
8067;DHT22;4076;48.076;9.118;2022-09-09T02:41:50;11.30;99.90
8067;DHT22;4076;48.076;9.118;2022-09-09T02:44:18;11.30;99.90
8067;DHT22;4076;48.076;9.118;2022-09-09T02:52:06;11.40;99.90
8067;DHT22;4076;48.076;9.118;2022-09-09T02:54:33;11.40;99.90
8067;DHT22;4076;48.076;9.118;2022-09-09T02:57:10;11.40;99.90
8067;DHT22;4076;48.076;9.118;2022-09-09T02:59:37;11.40;99.90
8067;DHT22;4076;48.076;9.118;2022-09-09T03:02:03;11.50;99.90
8067;DHT22;4076;48.076;9.118;2022-09-09T03:04:29;11.50;99.90
8067;DHT22;4076;48.076;9.118;2022-09-09T03:06:55;11.60;99.90
8067;DHT22;4076;48.076;9.118;2022-09-09T03:09:21;11.60;99.90
8067;DHT22;4076;48.076;9.118;2022-09-09T03:11:47;11.50;99.90
8067;DHT22;4076;48.076;9.118;2022-09-09T03:14:12;11.50;99.90
8067;DHT22;4076;48.076;9.118;2022-09-09T03:16:38;11.40;99.90
8067;DHT22;4076;48.076;9.118;2022-09-09T03:19:04;11.40;99.90
8067;DHT22;4076;48.076;9.118;2022-09-09T03:21:29;11.40;99.90
8067;DHT22;4076;48.076;9.118;2022-09-09T03:23:55;11.40;99.90
8067;DHT22;4076;48.076;9.118;2022-09-09T03:26:21;11.40;99.90
8067;DHT22;4076;48.076;9.118;2022-09-09T03:28:46;11.40;99.90
8067;DHT22;4076;48.076;9.118;2022-09-09T03:31:12;11.60;99.90
8067;DHT22;4076;48.076;9.118;2022-09-09T03:33:38;11.60;99.90
8067;DHT22;4076;48.076;9.118;2022-09-09T03:36:05;11.60;99.90
8067;DHT22;4076;48.076;9.118;2022-09-09T03:38:30;11.60;99.90
8067;DHT22;4076;48.076;9.118;2022-09-09T03:40:57;11.60;99.90
8067;DHT22;4076;48.076;9.118;2022-09-09T03:43:24;11.60;99.90
8067;DHT22;4076;48.076;9.118;2022-09-09T03:45:51;11.50;99.90
8067;DHT22;4076;48.076;9.118;2022-09-09T03:48:17;11.50;99.90
8067;DHT22;4076;48.076;9.118;2022-09-09T03:50:48;11.50;99.90
8067;DHT22;4076;48.076;9.118;2022-09-09T03:53:15;11.60;99.90
8067;DHT22;4076;48.076;9.118;2022-09-09T03:55:52;11.60;99.90
8067;DHT22;4076;48.076;9.118;2022-09-09T03:58:21;11.60;99.90
8067;DHT22;4076;48.076;9.118;2022-09-09T04:00:58;11.50;99.90
8067;DHT22;4076;48.076;9.118;2022-09-09T04:03:24;11.50;99.90
8067;DHT22;4076;48.076;9.118;2022-09-09T04:05:55;11.60;99.90
8067;DHT22;4076;48.076;9.118;2022-09-09T04:08:21;11.60;99.90
8067;DHT22;4076;48.076;9.118;2022-09-09T04:10:51;11.60;99.90
8067;DHT22;4076;48.076;9.118;2022-09-09T04:13:17;11.70;99.90
8067;DHT22;4076;48.076;9.118;2022-09-09T04:15:44;11.70;99.90
8067;DHT22;4076;48.076;9.118;2022-09-09T04:18:10;11.70;99.90
8067;DHT22;4076;48.076;9.118;2022-09-09T04:20:37;11.70;99.90
8067;DHT22;4076;48.076;9.118;2022-09-09T04:23:03;11.70;99.90
8067;DHT22;4076;48.076;9.118;2022-09-09T04:25:30;11.70;99.90
8067;DHT22;4076;48.076;9.118;2022-09-09T04:27:56;11.60;99.90
8067;DHT22;4076;48.076;9.118;2022-09-09T04:30:24;11.60;99.90
8067;DHT22;4076;48.076;9.118;2022-09-09T04:32:50;11.60;99.90
8067;DHT22;4076;48.076;9.118;2022-09-09T04:35:16;11.50;99.90
8067;DHT22;4076;48.076;9.118;2022-09-09T04:37:42;11.50;99.90
8067;DHT22;4076;48.076;9.118;2022-09-09T04:40:08;11.50;99.90
8067;DHT22;4076;48.076;9.118;2022-09-09T04:42:39;11.50;99.90
8067;DHT22;4076;48.076;9.118;2022-09-09T04:45:06;11.50;99.90
8067;DHT22;4076;48.076;9.118;2022-09-09T04:47:33;11.60;99.90
8067;DHT22;4076;48.076;9.118;2022-09-09T04:50:01;11.60;99.90
8067;DHT22;4076;48.076;9.118;2022-09-09T04:52:26;11.60;99.90
8067;DHT22;4076;48.076;9.118;2022-09-09T04:54:52;11.60;99.90
8067;DHT22;4076;48.076;9.118;2022-09-09T04:57:19;11.60;99.90
8067;DHT22;4076;48.076;9.118;2022-09-09T04:59:45;11.60;99.90
8067;DHT22;4076;48.076;9.118;2022-09-09T05:02:11;11.60;99.90
8067;DHT22;4076;48.076;9.118;2022-09-09T05:04:37;11.70;99.90
8067;DHT22;4076;48.076;9.118;2022-09-09T05:07:02;11.60;99.90
8067;DHT22;4076;48.076;9.118;2022-09-09T05:09:28;11.70;99.90
8067;DHT22;4076;48.076;9.118;2022-09-09T05:11:54;11.70;99.90
8067;DHT22;4076;48.076;9.118;2022-09-09T05:14:21;11.70;99.90
8067;DHT22;4076;48.076;9.118;2022-09-09T05:16:47;11.70;99.90
8067;DHT22;4076;48.076;9.118;2022-09-09T05:19:15;11.80;99.90
8067;DHT22;4076;48.076;9.118;2022-09-09T05:21:40;11.80;99.90
8067;DHT22;4076;48.076;9.118;2022-09-09T05:24:07;11.80;99.90
8067;DHT22;4076;48.076;9.118;2022-09-09T05:26:32;11.80;99.90
8067;DHT22;4076;48.076;9.118;2022-09-09T05:28:58;11.80;99.90
8067;DHT22;4076;48.076;9.118;2022-09-09T05:31:25;11.90;99.90
8067;DHT22;4076;48.076;9.118;2022-09-09T05:33:53;11.90;99.90
8067;DHT22;4076;48.076;9.118;2022-09-09T05:36:21;12.00;99.90
8067;DHT22;4076;48.076;9.118;2022-09-09T05:38:47;12.00;99.90
8067;DHT22;4076;48.076;9.118;2022-09-09T05:41:13;12.10;99.90
8067;DHT22;4076;48.076;9.118;2022-09-09T05:43:43;12.20;99.90
8067;DHT22;4076;48.076;9.118;2022-09-09T05:46:12;12.30;99.90
8067;DHT22;4076;48.076;9.118;2022-09-09T05:48:39;12.40;99.90
8067;DHT22;4076;48.076;9.118;2022-09-09T05:51:07;12.50;99.90
8067;DHT22;4076;48.076;9.118;2022-09-09T05:53:34;12.60;99.90
8067;DHT22;4076;48.076;9.118;2022-09-09T05:56:13;12.80;99.90
8067;DHT22;4076;48.076;9.118;2022-09-09T05:58:40;13.00;99.90
8067;DHT22;4076;48.076;9.118;2022-09-09T06:01:06;13.10;99.90
8067;DHT22;4076;48.076;9.118;2022-09-09T06:03:35;13.20;99.90
8067;DHT22;4076;48.076;9.118;2022-09-09T06:06:04;13.40;99.90
8067;DHT22;4076;48.076;9.118;2022-09-09T06:08:35;13.40;99.90
8067;DHT22;4076;48.076;9.118;2022-09-09T06:11:16;13.50;99.90
8067;DHT22;4076;48.076;9.118;2022-09-09T06:13:43;13.60;99.90
8067;DHT22;4076;48.076;9.118;2022-09-09T06:16:10;13.60;99.90
8067;DHT22;4076;48.076;9.118;2022-09-09T06:18:40;13.70;99.90
8067;DHT22;4076;48.076;9.118;2022-09-09T06:21:14;13.80;99.90
8067;DHT22;4076;48.076;9.118;2022-09-09T06:23:40;13.90;99.90
8067;DHT22;4076;48.076;9.118;2022-09-09T06:26:20;14.00;99.90
8067;DHT22;4076;48.076;9.118;2022-09-09T06:28:47;14.00;99.90
8067;DHT22;4076;48.076;9.118;2022-09-09T06:31:14;14.00;99.90
8067;DHT22;4076;48.076;9.118;2022-09-09T06:33:41;14.10;99.90
8067;DHT22;4076;48.076;9.118;2022-09-09T06:36:20;14.40;99.90
8067;DHT22;4076;48.076;9.118;2022-09-09T06:38:46;14.60;99.90
8067;DHT22;4076;48.076;9.118;2022-09-09T06:41:14;14.70;99.90
8067;DHT22;4076;48.076;9.118;2022-09-09T06:43:40;14.70;99.90
8067;DHT22;4076;48.076;9.118;2022-09-09T06:46:15;14.60;99.90
8067;DHT22;4076;48.076;9.118;2022-09-09T06:48:41;14.50;99.90
8067;DHT22;4076;48.076;9.118;2022-09-09T06:51:10;14.40;99.90
8067;DHT22;4076;48.076;9.118;2022-09-09T06:53:40;14.40;99.90
8067;DHT22;4076;48.076;9.118;2022-09-09T06:58:41;14.40;99.90
8067;DHT22;4076;48.076;9.118;2022-09-09T07:01:14;14.50;99.90
8067;DHT22;4076;48.076;9.118;2022-09-09T07:03:41;14.50;99.90
8067;DHT22;4076;48.076;9.118;2022-09-09T07:06:09;14.60;99.90
8067;DHT22;4076;48.076;9.118;2022-09-09T07:08:39;14.70;99.90
8067;DHT22;4076;48.076;9.118;2022-09-09T07:11:07;14.90;99.90
8067;DHT22;4076;48.076;9.118;2022-09-09T07:13:33;15.00;99.90
8067;DHT22;4076;48.076;9.118;2022-09-09T07:16:06;15.30;99.90
8067;DHT22;4076;48.076;9.118;2022-09-09T07:18:32;15.50;99.90
8067;DHT22;4076;48.076;9.118;2022-09-09T07:20:58;15.90;99.90
8067;DHT22;4076;48.076;9.118;2022-09-09T07:23:24;16.00;99.90
8067;DHT22;4076;48.076;9.118;2022-09-09T07:25:51;16.10;99.90
8067;DHT22;4076;48.076;9.118;2022-09-09T07:28:18;16.30;99.90
8067;DHT22;4076;48.076;9.118;2022-09-09T07:33:20;17.10;99.90
8067;DHT22;4076;48.076;9.118;2022-09-09T07:35:46;17.70;99.90
8067;DHT22;4076;48.076;9.118;2022-09-09T07:38:12;18.10;99.90
8067;DHT22;4076;48.076;9.118;2022-09-09T07:40:37;18.30;99.90
8067;DHT22;4076;48.076;9.118;2022-09-09T07:43:04;18.60;99.90
8067;DHT22;4076;48.076;9.118;2022-09-09T07:45:33;18.90;99.90
8067;DHT22;4076;48.076;9.118;2022-09-09T07:47:59;19.40;99.90
8067;DHT22;4076;48.076;9.118;2022-09-09T07:50:25;20.80;99.90
8067;DHT22;4076;48.076;9.118;2022-09-09T07:52:51;22.40;99.90
8067;DHT22;4076;48.076;9.118;2022-09-09T07:55:17;23.10;96.80
8067;DHT22;4076;48.076;9.118;2022-09-09T07:57:43;23.20;92.90
8067;DHT22;4076;48.076;9.118;2022-09-09T08:00:09;22.90;89.10
8067;DHT22;4076;48.076;9.118;2022-09-09T08:02:35;22.10;89.90
8067;DHT22;4076;48.076;9.118;2022-09-09T08:05:01;21.40;91.50
8067;DHT22;4076;48.076;9.118;2022-09-09T08:07:27;21.60;96.00
8067;DHT22;4076;48.076;9.118;2022-09-09T08:09:53;24.50;88.20
8067;DHT22;4076;48.076;9.118;2022-09-09T08:12:21;28.00;70.50
8067;DHT22;4076;48.076;9.118;2022-09-09T08:14:48;30.50;55.90
8067;DHT22;4076;48.076;9.118;2022-09-09T08:17:14;32.20;49.60
8067;DHT22;4076;48.076;9.118;2022-09-09T08:19:39;32.70;44.40
8067;DHT22;4076;48.076;9.118;2022-09-09T08:22:05;31.30;44.80
8067;DHT22;4076;48.076;9.118;2022-09-09T08:24:31;29.60;46.40
8067;DHT22;4076;48.076;9.118;2022-09-09T08:26:56;27.90;48.70
8067;DHT22;4076;48.076;9.118;2022-09-09T08:29:22;26.20;49.50
8067;DHT22;4076;48.076;9.118;2022-09-09T08:31:53;24.80;51.70
8067;DHT22;4076;48.076;9.118;2022-09-09T08:34:20;23.80;54.50
8067;DHT22;4076;48.076;9.118;2022-09-09T08:36:47;23.30;56.60
8067;DHT22;4076;48.076;9.118;2022-09-09T08:39:15;23.10;57.90
8067;DHT22;4076;48.076;9.118;2022-09-09T08:52:46;36.70;38.80
8067;DHT22;4076;48.076;9.118;2022-09-09T08:55:29;39.00;34.90
8067;DHT22;4076;48.076;9.118;2022-09-09T08:58:06;40.50;31.40
8067;DHT22;4076;48.076;9.118;2022-09-09T09:00:51;41.70;30.00
8067;DHT22;4076;48.076;9.118;2022-09-09T09:11:24;36.10;33.50
8067;DHT22;4076;48.076;9.118;2022-09-09T09:16:58;38.10;33.20
8067;DHT22;4076;48.076;9.118;2022-09-09T09:19:25;38.90;31.00
8067;DHT22;4076;48.076;9.118;2022-09-09T09:22:05;40.20;30.20
8067;DHT22;4076;48.076;9.118;2022-09-09T09:24:52;39.20;29.70
8067;DHT22;4076;48.076;9.118;2022-09-09T09:30:44;35.60;33.50
8067;DHT22;4076;48.076;9.118;2022-09-09T09:33:21;36.70;32.70
8067;DHT22;4076;48.076;9.118;2022-09-09T09:35:50;37.40;32.60
8067;DHT22;4076;48.076;9.118;2022-09-09T09:38:20;37.80;30.80
8067;DHT22;4076;48.076;9.118;2022-09-09T09:40:56;36.70;31.20
8067;DHT22;4076;48.076;9.118;2022-09-09T09:43:36;35.40;31.70
8067;DHT22;4076;48.076;9.118;2022-09-09T09:46:05;34.40;33.60
8067;DHT22;4076;48.076;9.118;2022-09-09T09:48:43;35.10;33.90
8067;DHT22;4076;48.076;9.118;2022-09-09T09:51:11;35.70;33.30
8067;DHT22;4076;48.076;9.118;2022-09-09T09:53:39;34.50;32.50
8067;DHT22;4076;48.076;9.118;2022-09-09T09:56:08;32.50;33.60
8067;DHT22;4076;48.076;9.118;2022-09-09T09:58:49;30.90;36.30
8067;DHT22;4076;48.076;9.118;2022-09-09T10:04:12;30.00;38.30
8067;DHT22;4076;48.076;9.118;2022-09-09T10:06:39;30.10;38.90
8067;DHT22;4076;48.076;9.118;2022-09-09T10:09:25;30.20;38.10
8067;DHT22;4076;48.076;9.118;2022-09-09T10:12:02;29.70;38.50
8067;DHT22;4076;48.076;9.118;2022-09-09T10:19:31;28.20;40.00
8067;DHT22;4076;48.076;9.118;2022-09-09T10:39:04;27.60;42.00
8067;DHT22;4076;48.076;9.118;2022-09-09T10:50:28;26.10;41.00
8067;DHT22;4076;48.076;9.118;2022-09-09T10:53:10;25.90;43.30
8067;DHT22;4076;48.076;9.118;2022-09-09T10:55:48;26.10;42.60
8067;DHT22;4076;48.076;9.118;2022-09-09T10:58:25;26.30;43.00
8067;DHT22;4076;48.076;9.118;2022-09-09T11:01:00;26.50;42.40
8067;DHT22;4076;48.076;9.118;2022-09-09T11:03:29;26.70;42.60
8067;DHT22;4076;48.076;9.118;2022-09-09T11:06:06;26.80;42.10
8067;DHT22;4076;48.076;9.118;2022-09-09T11:08:35;26.90;42.60
8067;DHT22;4076;48.076;9.118;2022-09-09T11:13:49;26.30;43.80
8067;DHT22;4076;48.076;9.118;2022-09-09T11:21:51;25.50;42.70
8067;DHT22;4076;48.076;9.118;2022-09-09T11:24:28;25.20;42.50
8067;DHT22;4076;48.076;9.118;2022-09-09T11:30:44;24.70;43.00
8067;DHT22;4076;48.076;9.118;2022-09-09T11:35:46;23.90;44.70
8067;DHT22;4076;48.076;9.118;2022-09-09T11:38:27;23.90;45.30
8067;DHT22;4076;48.076;9.118;2022-09-09T11:41:05;24.10;45.60
8067;DHT22;4076;48.076;9.118;2022-09-09T11:43:33;24.60;44.10
8067;DHT22;4076;48.076;9.118;2022-09-09T11:46:03;24.90;43.60
8067;DHT22;4076;48.076;9.118;2022-09-09T11:48:33;25.20;44.40
8067;DHT22;4076;48.076;9.118;2022-09-09T11:53:49;25.10;43.40
8067;DHT22;4076;48.076;9.118;2022-09-09T11:59:03;24.70;42.30
8067;DHT22;4076;48.076;9.118;2022-09-09T12:04:17;24.70;42.90
8067;DHT22;4076;48.076;9.118;2022-09-09T12:09:58;24.60;42.60
8067;DHT22;4076;48.076;9.118;2022-09-09T12:17:45;25.50;42.50
8067;DHT22;4076;48.076;9.118;2022-09-09T12:28:11;24.80;41.60
8067;DHT22;4076;48.076;9.118;2022-09-09T12:33:44;24.60;43.20
8067;DHT22;4076;48.076;9.118;2022-09-09T12:36:18;24.50;44.20
8067;DHT22;4076;48.076;9.118;2022-09-09T12:38:45;24.50;43.70
8067;DHT22;4076;48.076;9.118;2022-09-09T12:41:26;24.50;43.20
8067;DHT22;4076;48.076;9.118;2022-09-09T12:44:02;24.40;43.20
8067;DHT22;4076;48.076;9.118;2022-09-09T12:46:44;24.30;41.60
8067;DHT22;4076;48.076;9.118;2022-09-09T12:49:32;23.80;42.60
8067;DHT22;4076;48.076;9.118;2022-09-09T12:52:03;23.50;43.30
8067;DHT22;4076;48.076;9.118;2022-09-09T12:54:33;23.50;43.80
8067;DHT22;4076;48.076;9.118;2022-09-09T12:57:00;23.60;42.90
8067;DHT22;4076;48.076;9.118;2022-09-09T12:59:34;23.70;43.00
8067;DHT22;4076;48.076;9.118;2022-09-09T13:02:00;24.00;42.90
8067;DHT22;4076;48.076;9.118;2022-09-09T13:04:26;24.10;42.20
8067;DHT22;4076;48.076;9.118;2022-09-09T13:06:52;24.30;43.50
8067;DHT22;4076;48.076;9.118;2022-09-09T13:09:18;24.80;43.30
8067;DHT22;4076;48.076;9.118;2022-09-09T13:11:49;24.90;42.20
8067;DHT22;4076;48.076;9.118;2022-09-09T13:14:18;24.60;42.30
8067;DHT22;4076;48.076;9.118;2022-09-09T13:16:56;24.30;40.90
8067;DHT22;4076;48.076;9.118;2022-09-09T13:19:22;24.10;42.50
8067;DHT22;4076;48.076;9.118;2022-09-09T13:21:51;24.30;43.00
8067;DHT22;4076;48.076;9.118;2022-09-09T13:24:30;24.40;41.60
8067;DHT22;4076;48.076;9.118;2022-09-09T13:27:02;24.40;42.70
8067;DHT22;4076;48.076;9.118;2022-09-09T13:29:29;24.40;42.50
8067;DHT22;4076;48.076;9.118;2022-09-09T13:32:12;24.20;43.00
8067;DHT22;4076;48.076;9.118;2022-09-09T13:34:54;24.20;43.30
8067;DHT22;4076;48.076;9.118;2022-09-09T13:37:39;24.20;42.60
8067;DHT22;4076;48.076;9.118;2022-09-09T13:40:15;24.00;41.60
8067;DHT22;4076;48.076;9.118;2022-09-09T13:42:42;23.70;42.90
8067;DHT22;4076;48.076;9.118;2022-09-09T13:45:20;23.70;43.20
8067;DHT22;4076;48.076;9.118;2022-09-09T13:47:46;23.80;43.40
8067;DHT22;4076;48.076;9.118;2022-09-09T13:50:27;23.90;43.50
8067;DHT22;4076;48.076;9.118;2022-09-09T13:52:55;24.00;43.30
8067;DHT22;4076;48.076;9.118;2022-09-09T13:55:22;24.00;43.60
8067;DHT22;4076;48.076;9.118;2022-09-09T13:57:58;24.10;43.00
8067;DHT22;4076;48.076;9.118;2022-09-09T14:00:26;23.90;42.70
8067;DHT22;4076;48.076;9.118;2022-09-09T14:02:52;23.90;43.30
8067;DHT22;4076;48.076;9.118;2022-09-09T14:05:20;23.90;43.60
8067;DHT22;4076;48.076;9.118;2022-09-09T14:07:48;23.60;42.80
8067;DHT22;4076;48.076;9.118;2022-09-09T14:10:14;23.30;43.80
8067;DHT22;4076;48.076;9.118;2022-09-09T14:12:40;23.20;44.60
8067;DHT22;4076;48.076;9.118;2022-09-09T14:15:07;23.30;44.50
8067;DHT22;4076;48.076;9.118;2022-09-09T14:17:33;23.50;44.70
8067;DHT22;4076;48.076;9.118;2022-09-09T14:20:04;23.50;44.20
8067;DHT22;4076;48.076;9.118;2022-09-09T14:22:35;23.50;44.30
8067;DHT22;4076;48.076;9.118;2022-09-09T14:25:01;23.40;43.40
8067;DHT22;4076;48.076;9.118;2022-09-09T14:27:27;23.20;44.00
8067;DHT22;4076;48.076;9.118;2022-09-09T14:29:53;22.90;44.30
8067;DHT22;4076;48.076;9.118;2022-09-09T14:32:20;22.80;44.40
8067;DHT22;4076;48.076;9.118;2022-09-09T14:34:46;22.70;44.90
8067;DHT22;4076;48.076;9.118;2022-09-09T14:37:15;22.80;45.50
8067;DHT22;4076;48.076;9.118;2022-09-09T14:39:41;23.10;45.50
8067;DHT22;4076;48.076;9.118;2022-09-09T14:42:09;23.40;45.40
8067;DHT22;4076;48.076;9.118;2022-09-09T14:44:37;23.50;45.00
8067;DHT22;4076;48.076;9.118;2022-09-09T14:47:06;23.70;44.60
8067;DHT22;4076;48.076;9.118;2022-09-09T14:49:33;23.70;44.50
8067;DHT22;4076;48.076;9.118;2022-09-09T14:51:59;23.60;44.20
8067;DHT22;4076;48.076;9.118;2022-09-09T14:54:25;23.40;44.40
8067;DHT22;4076;48.076;9.118;2022-09-09T14:56:51;23.30;44.40
8067;DHT22;4076;48.076;9.118;2022-09-09T14:59:16;23.10;44.90
8067;DHT22;4076;48.076;9.118;2022-09-09T15:01:42;22.90;45.10
8067;DHT22;4076;48.076;9.118;2022-09-09T15:04:10;22.80;45.20
8067;DHT22;4076;48.076;9.118;2022-09-09T15:06:36;22.60;45.70
8067;DHT22;4076;48.076;9.118;2022-09-09T15:09:04;22.50;45.40
8067;DHT22;4076;48.076;9.118;2022-09-09T15:11:35;22.30;45.10
8067;DHT22;4076;48.076;9.118;2022-09-09T15:14:05;22.20;45.90
8067;DHT22;4076;48.076;9.118;2022-09-09T15:16:31;22.00;46.30
8067;DHT22;4076;48.076;9.118;2022-09-09T15:19:01;22.10;46.20
8067;DHT22;4076;48.076;9.118;2022-09-09T15:21:33;22.20;46.20
8067;DHT22;4076;48.076;9.118;2022-09-09T15:23:59;22.20;45.80
8067;DHT22;4076;48.076;9.118;2022-09-09T15:26:25;22.30;45.90
8067;DHT22;4076;48.076;9.118;2022-09-09T15:28:51;22.40;45.40
8067;DHT22;4076;48.076;9.118;2022-09-09T15:33:52;22.20;45.30
8067;DHT22;4076;48.076;9.118;2022-09-09T15:36:24;21.90;45.20
8067;DHT22;4076;48.076;9.118;2022-09-09T15:38:50;21.70;46.00
8067;DHT22;4076;48.076;9.118;2022-09-09T15:41:17;21.40;46.00
8067;DHT22;4076;48.076;9.118;2022-09-09T15:43:48;21.20;46.00
8067;DHT22;4076;48.076;9.118;2022-09-09T15:46:21;21.10;46.60
8067;DHT22;4076;48.076;9.118;2022-09-09T15:48:51;20.90;46.60
8067;DHT22;4076;48.076;9.118;2022-09-09T15:51:17;20.80;46.80
8067;DHT22;4076;48.076;9.118;2022-09-09T15:53:44;20.80;47.30
8067;DHT22;4076;48.076;9.118;2022-09-09T15:56:10;20.80;46.70
8067;DHT22;4076;48.076;9.118;2022-09-09T15:58:36;20.80;47.20
8067;DHT22;4076;48.076;9.118;2022-09-09T16:01:09;20.80;47.50
8067;DHT22;4076;48.076;9.118;2022-09-09T16:03:39;20.70;47.90
8067;DHT22;4076;48.076;9.118;2022-09-09T16:06:06;20.70;47.70
8067;DHT22;4076;48.076;9.118;2022-09-09T16:08:37;20.70;47.00
8067;DHT22;4076;48.076;9.118;2022-09-09T16:11:34;20.70;47.00
8067;DHT22;4076;48.076;9.118;2022-09-09T16:14:01;20.70;47.00
8067;DHT22;4076;48.076;9.118;2022-09-09T16:16:28;20.70;47.20
8067;DHT22;4076;48.076;9.118;2022-09-09T16:18:57;20.70;46.70
8067;DHT22;4076;48.076;9.118;2022-09-09T16:21:45;20.70;46.50
8067;DHT22;4076;48.076;9.118;2022-09-09T16:24:12;20.60;46.80
8067;DHT22;4076;48.076;9.118;2022-09-09T16:26:39;20.60;47.30
8067;DHT22;4076;48.076;9.118;2022-09-09T16:29:05;20.50;46.50
8067;DHT22;4076;48.076;9.118;2022-09-09T16:31:32;20.30;47.20
8067;DHT22;4076;48.076;9.118;2022-09-09T16:33:58;20.20;47.10
8067;DHT22;4076;48.076;9.118;2022-09-09T16:36:25;19.90;47.10
8067;DHT22;4076;48.076;9.118;2022-09-09T16:38:53;19.70;48.00
8067;DHT22;4076;48.076;9.118;2022-09-09T16:41:20;19.50;47.70
8067;DHT22;4076;48.076;9.118;2022-09-09T16:43:46;19.30;48.30
8067;DHT22;4076;48.076;9.118;2022-09-09T16:46:17;19.20;48.80
8067;DHT22;4076;48.076;9.118;2022-09-09T16:48:44;18.90;48.90
8067;DHT22;4076;48.076;9.118;2022-09-09T16:51:18;18.80;50.00
8067;DHT22;4076;48.076;9.118;2022-09-09T16:53:45;18.60;49.80
8067;DHT22;4076;48.076;9.118;2022-09-09T16:56:14;18.50;50.40
8067;DHT22;4076;48.076;9.118;2022-09-09T16:58:40;18.30;51.10
8067;DHT22;4076;48.076;9.118;2022-09-09T17:01:08;18.20;51.00
8067;DHT22;4076;48.076;9.118;2022-09-09T17:03:35;18.20;62.20
8067;DHT22;4076;48.076;9.118;2022-09-09T17:06:02;18.00;54.80
8067;DHT22;4076;48.076;9.118;2022-09-09T17:08:31;18.00;51.90
8067;DHT22;4076;48.076;9.118;2022-09-09T17:10:58;18.00;52.90
8067;DHT22;4076;48.076;9.118;2022-09-09T17:13:24;17.90;52.80
8067;DHT22;4076;48.076;9.118;2022-09-09T17:15:50;17.70;53.60
8067;DHT22;4076;48.076;9.118;2022-09-09T17:18:16;17.60;54.20
8067;DHT22;4076;48.076;9.118;2022-09-09T17:20:42;17.60;55.30
8067;DHT22;4076;48.076;9.118;2022-09-09T17:23:10;17.40;55.40
8067;DHT22;4076;48.076;9.118;2022-09-09T17:25:36;17.30;56.10
8067;DHT22;4076;48.076;9.118;2022-09-09T17:28:02;17.20;56.40
8067;DHT22;4076;48.076;9.118;2022-09-09T17:30:34;17.10;56.70
8067;DHT22;4076;48.076;9.118;2022-09-09T17:33:00;17.00;57.60
8067;DHT22;4076;48.076;9.118;2022-09-09T17:35:26;16.90;57.20
8067;DHT22;4076;48.076;9.118;2022-09-09T17:37:53;16.80;57.30
8067;DHT22;4076;48.076;9.118;2022-09-09T17:40:20;16.80;58.10
8067;DHT22;4076;48.076;9.118;2022-09-09T17:42:46;16.70;58.60
8067;DHT22;4076;48.076;9.118;2022-09-09T17:45:12;16.70;58.50
8067;DHT22;4076;48.076;9.118;2022-09-09T17:47:38;16.60;58.90
8067;DHT22;4076;48.076;9.118;2022-09-09T17:50:05;16.50;59.40
8067;DHT22;4076;48.076;9.118;2022-09-09T17:52:32;16.50;61.00
8067;DHT22;4076;48.076;9.118;2022-09-09T17:54:57;16.40;62.00
8067;DHT22;4076;48.076;9.118;2022-09-09T17:57:23;16.40;60.20
8067;DHT22;4076;48.076;9.118;2022-09-09T17:59:50;16.40;62.70
8067;DHT22;4076;48.076;9.118;2022-09-09T18:02:15;16.40;63.00
8067;DHT22;4076;48.076;9.118;2022-09-09T18:04:41;16.40;63.60
8067;DHT22;4076;48.076;9.118;2022-09-09T18:07:07;16.40;64.60
8067;DHT22;4076;48.076;9.118;2022-09-09T18:09:33;16.40;69.80
8067;DHT22;4076;48.076;9.118;2022-09-09T18:11:59;16.40;69.70
8067;DHT22;4076;48.076;9.118;2022-09-09T18:14:28;16.40;73.70
8067;DHT22;4076;48.076;9.118;2022-09-09T18:16:55;16.30;74.70
8067;DHT22;4076;48.076;9.118;2022-09-09T18:19:24;16.30;78.80
8067;DHT22;4076;48.076;9.118;2022-09-09T18:21:50;16.30;80.50
8067;DHT22;4076;48.076;9.118;2022-09-09T18:24:18;16.30;85.00
8067;DHT22;4076;48.076;9.118;2022-09-09T18:26:44;16.40;89.50
8067;DHT22;4076;48.076;9.118;2022-09-09T18:29:12;16.30;94.10
8067;DHT22;4076;48.076;9.118;2022-09-09T18:31:39;16.30;95.60
8067;DHT22;4076;48.076;9.118;2022-09-09T18:34:09;16.20;99.40
8067;DHT22;4076;48.076;9.118;2022-09-09T18:36:38;16.10;99.90
8067;DHT22;4076;48.076;9.118;2022-09-09T18:39:05;16.00;99.90
8067;DHT22;4076;48.076;9.118;2022-09-09T18:43:59;15.90;99.90
8067;DHT22;4076;48.076;9.118;2022-09-09T18:46:27;15.90;99.90
8067;DHT22;4076;48.076;9.118;2022-09-09T18:48:53;15.80;99.90
8067;DHT22;4076;48.076;9.118;2022-09-09T18:51:22;15.70;99.90
8067;DHT22;4076;48.076;9.118;2022-09-09T18:53:51;15.60;99.90